Buncombe, Illinois
Current Conditions -  °F | °C
As of 10:50 PM on Monday 22 Dec 2014 (Local Time) from KMWA Reporting Station
Overcast Overcast  
Wind Chill: 54°   Ceiling: 800
Heat Index: 54°   Visibility: 10mi
Dew Point: 52°   Wind: 10mph
Humidity: 94%   Direction: 180°S
Pressure: 29.61"   Gusts: NA
Location:  37.47°N, 88.98°W
Report Text: KMWA 230450Z AUTO 18009KT 10SM OVC008 12/11 A2961 RMK AO2 P0001
Loading
Personal Weather Stations






























Interactive Weather Map New forecast layout! Learn more

10-Day Weather Forecast

Advertisements
Track Severe Weather on mobile